createdAt,value
2023-02-27T00:01:02.156Z,99677.66
2023-02-27T00:02:04.972Z,99679.63
2023-02-27T00:03:06.864Z,99677.84
2023-02-27T00:04:08.835Z,99677.22
2023-02-27T00:05:11.173Z,99680.28
2023-02-27T00:06:13.082Z,99680.13
2023-02-27T00:07:15.260Z,99690.88
2023-02-27T00:08:17.112Z,99685.72
2023-02-27T00:09:19.042Z,99690.25
2023-02-27T00:10:21.222Z,99692.53
2023-02-27T00:11:23.194Z,99693.12
2023-02-27T00:12:25.999Z,99690.22
2023-02-27T00:13:27.958Z,99701.19
2023-02-27T00:14:30.006Z,99696.37
2023-02-27T00:15:32.501Z,99700.59
2023-02-27T00:16:34.569Z,99704.75
2023-02-27T00:17:36.742Z,99705.09
2023-02-27T00:18:38.610Z,99709.78
2023-02-27T00:19:40.439Z,99710.91
2023-02-27T00:20:42.436Z,99707.34
2023-02-27T00:21:47.616Z,99709.13
2023-02-27T00:22:49.870Z,99707.19
2023-02-27T00:23:51.711Z,99704.94
2023-02-27T00:24:53.776Z,99700.88
2023-02-27T00:25:56.023Z,99694.75
2023-02-27T00:26:57.942Z,99707.00
2023-02-27T00:28:00.313Z,99699.94
2023-02-27T00:29:02.392Z,99698.81
2023-02-27T00:30:09.366Z,99699.13
2023-02-27T00:31:11.340Z,99706.34
2023-02-27T00:32:13.355Z,99705.09
2023-02-27T00:33:15.680Z,99702.84
2023-02-27T00:34:17.716Z,99707.00
2023-02-27T00:35:20.545Z,99707.78
2023-02-27T00:36:22.580Z,99704.91
2023-02-27T00:37:24.577Z,99702.78
2023-02-27T00:38:29.447Z,99706.81
2023-02-27T00:39:32.530Z,99711.31
2023-02-27T00:40:35.989Z,99710.50
2023-02-27T00:41:37.966Z,99717.78
2023-02-27T00:42:39.912Z,99713.94
2023-02-27T00:43:42.521Z,99713.63
2023-02-27T00:44:44.423Z,99716.66
2023-02-27T00:45:47.968Z,99709.88
2023-02-27T00:46:49.922Z,99711.44
2023-02-27T00:47:51.891Z,99712.09
2023-02-27T00:48:55.042Z,99714.72
2023-02-27T00:49:56.960Z,99719.22
2023-02-27T00:50:58.802Z,99710.34
2023-02-27T00:52:01.296Z,99713.88
2023-02-27T00:53:03.277Z,99714.53
2023-02-27T00:54:06.091Z,99720.91
2023-02-27T00:55:08.768Z,99717.59
2023-02-27T00:56:10.679Z,99723.72
2023-02-27T00:57:12.540Z,99715.00
2023-02-27T00:58:15.863Z,99718.56
2023-02-27T00:59:18.234Z,99730.59
2023-02-27T01:00:20.625Z,99723.31
2023-02-27T01:01:22.659Z,99730.00
2023-02-27T01:02:24.921Z,99725.16
2023-02-27T01:03:26.824Z,99739.31
2023-02-27T01:04:29.110Z,99732.38
2023-02-27T01:05:31.051Z,99732.91
2023-02-27T01:06:34.451Z,99734.03
2023-02-27T01:07:37.647Z,99734.31
2023-02-27T01:08:39.817Z,99739.66
2023-02-27T01:09:42.024Z,99734.47
2023-02-27T01:10:43.948Z,99731.59
2023-02-27T01:11:45.904Z,99742.03
2023-02-27T01:12:47.781Z,99738.22
2023-02-27T01:13:49.834Z,99734.22
2023-02-27T01:14:52.183Z,99736.63
2023-02-27T01:15:54.088Z,99732.78
2023-02-27T01:16:57.896Z,99738.72
2023-02-27T01:18:00.036Z,99733.38
2023-02-27T01:19:04.039Z,99738.84
2023-02-27T01:20:11.244Z,99738.88
2023-02-27T01:21:13.191Z,99741.44
2023-02-27T01:22:15.167Z,99738.06
2023-02-27T01:23:17.036Z,99742.37
2023-02-27T01:24:19.855Z,99738.16
2023-02-27T01:25:23.361Z,99742.13
2023-02-27T01:26:25.577Z,99737.50
2023-02-27T01:27:28.434Z,99743.00
2023-02-27T01:28:30.386Z,99736.69
2023-02-27T01:29:32.453Z,99740.59
2023-02-27T01:30:36.833Z,99750.41
2023-02-27T01:31:38.762Z,99746.25
2023-02-27T01:32:40.709Z,99751.56
2023-02-27T01:33:42.574Z,99750.41
2023-02-27T01:34:44.462Z,99752.78
2023-02-27T01:35:46.643Z,99744.88
2023-02-27T01:36:48.516Z,99747.84
2023-02-27T01:37:51.004Z,99739.19
2023-02-27T01:38:52.996Z,99748.50
2023-02-27T01:39:54.994Z,99748.59
2023-02-27T01:41:00.729Z,99745.75
2023-02-27T01:42:03.217Z,99744.00
2023-02-27T01:43:06.314Z,99745.88
2023-02-27T01:44:11.475Z,99748.13
2023-02-27T01:45:30.235Z,99748.94
2023-02-27T01:46:33.534Z,99748.47
2023-02-27T01:47:37.097Z,99756.22
2023-02-27T01:48:40.026Z,99763.16
2023-02-27T01:49:41.968Z,99753.91
2023-02-27T01:50:53.488Z,99757.59
2023-02-27T01:52:05.768Z,99757.34
2023-02-27T01:53:07.849Z,99757.31
2023-02-27T01:54:11.663Z,99754.72
2023-02-27T01:55:14.968Z,99754.31
2023-02-27T01:56:21.886Z,99760.41
2023-02-27T01:57:24.399Z,99756.47
2023-02-27T01:58:28.449Z,99749.59
2023-02-27T01:59:30.385Z,99756.22
2023-02-27T02:00:32.348Z,99750.91
2023-02-27T02:01:35.303Z,99747.50
2023-02-27T02:02:40.762Z,99750.75
2023-02-27T02:03:45.540Z,99755.41
2023-02-27T02:04:48.404Z,99752.97
2023-02-27T02:05:53.488Z,99752.97
2023-02-27T02:07:07.223Z,99754.25
2023-02-27T02:08:09.971Z,99748.81
2023-02-27T02:09:13.867Z,99760.28
2023-02-27T02:10:17.630Z,99758.16
2023-02-27T02:11:21.366Z,99760.13
2023-02-27T02:12:27.043Z,99763.72
2023-02-27T02:13:29.225Z,99764.78
2023-02-27T02:14:31.121Z,99760.44
2023-02-27T02:15:39.447Z,99757.72
2023-02-27T02:17:06.055Z,99759.34
2023-02-27T02:18:19.889Z,99762.19
2023-02-27T02:19:59.460Z,99767.09
2023-02-27T02:21:10.462Z,99771.13
2023-02-27T02:22:42.885Z,99769.09
2023-02-27T02:24:05.067Z,99775.53
2023-02-27T02:25:09.915Z,99773.94
2023-02-27T02:26:33.145Z,99781.34
2023-02-27T02:28:06.166Z,99780.25
2023-02-27T02:29:35.441Z,99787.50
2023-02-27T02:30:43.038Z,99786.81
2023-02-27T02:32:18.819Z,99787.13
2023-02-27T02:33:33.577Z,99788.59
2023-02-27T02:34:49.563Z,99786.50
2023-02-27T02:36:17.554Z,99798.41
2023-02-27T02:37:56.568Z,99798.81
2023-02-27T02:39:17.113Z,99799.66
2023-02-27T02:40:34.992Z,99800.94
2023-02-27T02:42:05.128Z,99802.44
2023-02-27T02:43:40.235Z,99803.56
2023-02-27T02:45:03.741Z,99796.66
2023-02-27T02:46:27.447Z,99800.69
2023-02-27T02:47:41.354Z,99799.03
2023-02-27T02:48:58.172Z,99800.03
2023-02-27T02:50:09.672Z,99805.88
2023-02-27T02:51:27.262Z,99804.59
2023-02-27T02:52:40.115Z,99804.97
2023-02-27T02:53:51.224Z,99811.84
2023-02-27T02:55:06.042Z,99808.78
2023-02-27T02:56:14.815Z,99813.16
2023-02-27T02:57:24.065Z,99812.97
2023-02-27T02:58:40.774Z,99812.50
2023-02-27T03:00:09.523Z,99815.56
2023-02-27T03:01:25.305Z,99819.59
2023-02-27T03:02:32.026Z,99815.41
2023-02-27T03:03:43.380Z,99808.44
2023-02-27T03:05:04.012Z,99813.22
2023-02-27T03:06:32.323Z,99816.19
2023-02-27T03:07:37.335Z,99816.91
2023-02-27T03:09:03.023Z,99819.94
2023-02-27T03:10:29.609Z,99824.34
2023-02-27T03:11:37.879Z,99829.62
2023-02-27T03:12:44.225Z,99825.41
2023-02-27T03:13:49.037Z,99824.00
2023-02-27T03:14:59.322Z,99821.56
2023-02-27T03:16:01.167Z,99820.97
2023-02-27T03:17:09.875Z,99817.06
2023-02-27T03:18:21.713Z,99816.28
2023-02-27T03:19:32.759Z,99820.34
2023-02-27T03:20:42.873Z,99824.78
2023-02-27T03:21:53.898Z,99824.16
2023-02-27T03:23:00.075Z,99834.19
2023-02-27T03:24:04.807Z,99829.03
2023-02-27T03:25:11.036Z,99829.84
2023-02-27T03:26:21.868Z,99826.94
2023-02-27T03:27:29.726Z,99836.50
2023-02-27T03:28:36.260Z,99837.72
2023-02-27T03:29:50.381Z,99843.50
2023-02-27T03:31:01.002Z,99834.81
2023-02-27T03:32:13.045Z,99834.63
2023-02-27T03:33:47.770Z,99833.31
2023-02-27T03:34:50.360Z,99837.88
2023-02-27T03:36:41.551Z,99849.94
2023-02-27T03:37:59.050Z,99852.66
2023-02-27T03:39:19.235Z,99852.66
2023-02-27T03:40:31.944Z,99846.47
2023-02-27T03:41:49.169Z,99835.06
2023-02-27T03:43:22.447Z,99839.38
2023-02-27T03:44:46.633Z,99844.28
2023-02-27T03:46:10.340Z,99859.66
2023-02-27T03:47:12.288Z,99857.22
2023-02-27T03:48:14.412Z,99855.00
2023-02-27T03:49:16.722Z,99856.37
2023-02-27T03:50:19.021Z,99852.78
2023-02-27T03:51:24.527Z,99851.41
2023-02-27T03:52:29.619Z,99852.72
2023-02-27T03:53:56.569Z,99855.63
2023-02-27T03:55:09.112Z,99862.06
2023-02-27T03:56:14.251Z,99859.25
2023-02-27T03:57:16.830Z,99861.25
2023-02-27T03:58:19.282Z,99866.41
2023-02-27T03:59:21.869Z,99866.72
2023-02-27T04:00:26.721Z,99867.97
2023-02-27T04:01:29.914Z,99879.25
2023-02-27T04:02:33.478Z,99872.06
2023-02-27T04:03:41.515Z,99873.75
2023-02-27T04:04:44.430Z,99873.09
2023-02-27T04:05:49.333Z,99870.78
2023-02-27T04:07:20.468Z,99881.78
2023-02-27T04:08:43.571Z,99878.34
2023-02-27T04:10:12.308Z,99878.16
2023-02-27T04:11:44.024Z,99883.69
2023-02-27T04:13:13.834Z,99880.75
2023-02-27T04:14:33.973Z,99882.88
2023-02-27T04:16:15.737Z,99878.22
2023-02-27T04:17:23.380Z,99884.69
2023-02-27T04:18:55.190Z,99882.91
2023-02-27T04:20:32.743Z,99888.53
2023-02-27T04:22:22.876Z,99886.47
2023-02-27T04:23:42.889Z,99886.56
2023-02-27T04:25:22.556Z,99887.63
2023-02-27T04:26:51.236Z,99883.75
2023-02-27T04:28:03.957Z,99884.50
2023-02-27T04:29:27.349Z,99884.47
2023-02-27T04:30:58.372Z,99885.91
2023-02-27T04:32:07.112Z,99887.03
2023-02-27T04:33:22.053Z,99891.59
2023-02-27T04:34:38.425Z,99884.50
2023-02-27T04:35:52.561Z,99886.53
2023-02-27T04:37:02.179Z,99893.19
2023-02-27T04:38:16.920Z,99893.50
2023-02-27T04:39:32.450Z,99891.69
2023-02-27T04:40:46.423Z,99897.03
2023-02-27T04:41:53.639Z,99888.84
2023-02-27T04:42:59.434Z,99894.53
2023-02-27T04:44:03.650Z,99892.50
2023-02-27T04:45:12.689Z,99895.37
2023-02-27T04:46:19.545Z,99896.28
2023-02-27T04:47:25.456Z,99892.59
2023-02-27T04:48:36.224Z,99891.06
2023-02-27T04:50:05.261Z,99895.13
2023-02-27T04:51:07.063Z,99892.84
2023-02-27T04:52:14.700Z,99886.22
2023-02-27T04:53:25.324Z,99888.00
2023-02-27T04:54:36.221Z,99892.81
2023-02-27T04:55:46.156Z,99889.97
2023-02-27T04:56:53.788Z,99893.91
2023-02-27T04:58:04.621Z,99893.31
2023-02-27T04:59:22.454Z,99897.66
2023-02-27T05:00:27.236Z,99894.28
2023-02-27T05:01:43.676Z,99897.34
2023-02-27T05:02:50.404Z,99904.59
2023-02-27T05:03:55.361Z,99904.06
2023-02-27T05:04:59.790Z,99901.97
2023-02-27T05:06:02.906Z,99910.37
2023-02-27T05:07:09.508Z,99916.03
2023-02-27T05:08:21.553Z,99912.50
2023-02-27T05:09:54.951Z,99919.94
2023-02-27T05:11:23.335Z,99925.19
2023-02-27T05:12:53.459Z,99924.63
2023-02-27T05:14:02.250Z,99924.84
2023-02-27T05:15:07.527Z,99932.84
2023-02-27T05:16:28.027Z,99933.13
2023-02-27T05:18:00.971Z,99933.44
2023-02-27T05:19:03.734Z,99939.72
2023-02-27T05:20:09.703Z,99946.66
2023-02-27T05:21:28.343Z,99945.47
2023-02-27T05:22:42.566Z,99947.47
2023-02-27T05:24:03.973Z,99938.34
2023-02-27T05:25:08.992Z,99943.25
2023-02-27T05:26:42.979Z,99942.44
2023-02-27T05:27:54.175Z,99945.97
2023-02-27T05:29:06.579Z,99945.25
2023-02-27T05:30:34.357Z,99951.50
2023-02-27T05:31:49.275Z,99952.12
2023-02-27T05:33:18.167Z,99955.19
2023-02-27T05:34:35.511Z,99953.84
2023-02-27T05:35:41.498Z,99956.66
2023-02-27T05:36:52.048Z,99953.81
2023-02-27T05:38:02.350Z,99955.56
2023-02-27T05:39:10.186Z,99954.34
2023-02-27T05:40:17.044Z,99948.19
2023-02-27T05:41:27.841Z,99955.06
2023-02-27T05:42:38.210Z,99956.25
2023-02-27T05:43:47.736Z,99962.03
2023-02-27T05:44:55.623Z,99966.03
2023-02-27T05:46:06.674Z,99974.22
2023-02-27T05:47:13.533Z,99973.62
2023-02-27T05:48:22.523Z,99969.84
2023-02-27T05:49:30.276Z,99976.38
2023-02-27T05:50:35.589Z,99982.34
2023-02-27T05:51:40.352Z,99984.25
2023-02-27T05:52:44.217Z,99984.53
2023-02-27T05:53:53.980Z,99977.87
2023-02-27T05:55:07.076Z,99977.19
2023-02-27T05:56:12.847Z,99980.72
2023-02-27T05:57:21.194Z,99974.81
2023-02-27T05:58:50.790Z,99968.31
2023-02-27T06:00:05.067Z,99968.84
2023-02-27T06:01:13.421Z,99969.50
2023-02-27T06:02:15.841Z,99975.84
2023-02-27T06:03:18.182Z,99976.78
2023-02-27T06:04:20.141Z,99979.97
2023-02-27T06:05:23.034Z,99975.28
2023-02-27T06:06:25.334Z,99981.19
2023-02-27T06:07:31.245Z,99978.47
2023-02-27T06:08:33.941Z,99986.53
2023-02-27T06:09:36.132Z,99987.47
2023-02-27T06:10:38.708Z,99984.13
2023-02-27T06:11:40.578Z,99987.44
2023-02-27T06:12:42.793Z,99985.31
2023-02-27T06:13:44.679Z,99989.78
2023-02-27T06:14:46.512Z,99995.31
2023-02-27T06:15:49.014Z,99997.00
2023-02-27T06:16:50.864Z,99999.38
2023-02-27T06:17:53.096Z,99995.81
2023-02-27T06:18:55.515Z,100002.19
2023-02-27T06:19:57.407Z,99998.03
2023-02-27T06:20:59.328Z,100000.13
2023-02-27T06:22:01.444Z,100004.09
2023-02-27T06:23:03.645Z,100008.97
2023-02-27T06:24:05.967Z,100011.78
2023-02-27T06:25:08.484Z,100011.50
2023-02-27T06:26:14.169Z,100015.19
2023-02-27T06:27:16.148Z,100013.87
2023-02-27T06:28:18.583Z,100023.87
2023-02-27T06:29:20.583Z,100024.41
2023-02-27T06:30:22.469Z,100026.44
2023-02-27T06:31:24.302Z,100032.63
2023-02-27T06:32:26.707Z,100025.88
2023-02-27T06:33:28.912Z,100040.84
2023-02-27T06:34:30.823Z,100039.59
2023-02-27T06:35:32.894Z,100039.56
2023-02-27T06:36:34.771Z,100047.91
2023-02-27T06:37:36.645Z,100049.38
2023-02-27T06:38:38.916Z,100057.09
2023-02-27T06:39:40.870Z,100053.16
2023-02-27T06:40:42.799Z,100060.00
2023-02-27T06:41:44.676Z,100056.50
2023-02-27T06:42:46.568Z,100064.72
2023-02-27T06:43:49.304Z,100069.78
2023-02-27T06:44:51.259Z,100070.22
2023-02-27T06:45:56.408Z,100067.53
2023-02-27T06:46:58.305Z,100079.44
2023-02-27T06:48:00.146Z,100069.78
2023-02-27T06:49:02.745Z,100076.66
2023-02-27T06:50:05.898Z,100075.25
2023-02-27T06:51:07.805Z,100079.22
2023-02-27T06:52:09.664Z,100074.09
2023-02-27T06:53:11.554Z,100080.00
2023-02-27T06:54:14.337Z,100086.78
2023-02-27T06:55:20.303Z,100082.91
2023-02-27T06:56:22.136Z,100084.03
2023-02-27T06:57:24.313Z,100088.28
2023-02-27T06:58:26.349Z,100084.72
2023-02-27T06:59:28.534Z,100086.00
2023-02-27T07:00:30.763Z,100088.50
2023-02-27T07:01:32.810Z,100093.75
2023-02-27T07:02:34.728Z,100094.56
2023-02-27T07:03:36.631Z,100094.13
2023-02-27T07:04:38.906Z,100101.31
2023-02-27T07:05:42.061Z,100099.62
2023-02-27T07:07:33.266Z,100105.69
2023-02-27T07:08:05.895Z,100093.69
2023-02-27T07:09:07.863Z,100098.97
2023-02-27T07:10:13.133Z,100101.91
2023-02-27T07:11:15.849Z,100094.69
2023-02-27T07:12:17.796Z,100107.09
2023-02-27T07:13:19.994Z,100100.00
2023-02-27T07:14:21.964Z,100107.63
2023-02-27T07:15:24.440Z,100105.88
2023-02-27T07:16:26.685Z,100106.38
2023-02-27T07:17:28.671Z,100096.84
2023-02-27T07:18:30.816Z,100101.69
2023-02-27T07:19:35.972Z,100102.34
2023-02-27T07:20:38.261Z,100100.09
2023-02-27T07:21:40.204Z,100109.44
2023-02-27T07:22:42.145Z,100112.69
2023-02-27T07:23:44.351Z,100105.06
2023-02-27T07:24:46.194Z,100105.25
2023-02-27T07:25:48.388Z,100110.09
2023-02-27T07:26:50.506Z,100104.56
2023-02-27T07:27:52.429Z,100109.13
2023-02-27T07:28:54.912Z,100110.06
2023-02-27T07:29:57.301Z,100105.69
2023-02-27T07:30:59.906Z,100105.53
2023-02-27T07:32:02.257Z,100109.72
2023-02-27T07:33:04.262Z,100114.25
2023-02-27T07:34:06.800Z,100109.72
2023-02-27T07:35:09.386Z,100104.47
2023-02-27T07:36:11.582Z,100108.47
2023-02-27T07:37:13.849Z,100108.97
2023-02-27T07:38:15.745Z,100113.09
2023-02-27T07:39:17.644Z,100110.63
2023-02-27T07:40:19.894Z,100111.31
2023-02-27T07:41:30.432Z,100119.06
2023-02-27T07:42:34.466Z,100119.25
2023-02-27T07:43:36.366Z,100115.16
2023-02-27T07:44:38.274Z,100116.81
2023-02-27T07:45:40.774Z,100120.97
2023-02-27T07:46:44.734Z,100121.59
2023-02-27T07:47:46.887Z,100121.50
2023-02-27T07:48:48.734Z,100126.03
2023-02-27T07:49:50.658Z,100124.13
2023-02-27T07:50:52.554Z,100124.91
2023-02-27T07:51:54.708Z,100121.50
2023-02-27T07:52:56.589Z,100131.03
2023-02-27T07:53:59.003Z,100124.91
2023-02-27T07:55:00.871Z,100129.97
2023-02-27T07:56:02.758Z,100127.31
2023-02-27T07:57:05.818Z,100137.44
2023-02-27T07:58:07.724Z,100130.12
2023-02-27T07:59:09.706Z,100127.84
2023-02-27T08:00:12.472Z,100131.56
2023-02-27T08:01:14.951Z,100133.81
2023-02-27T08:02:16.841Z,100128.72
2023-02-27T08:03:18.670Z,100135.87
2023-02-27T08:04:20.704Z,100134.31
2023-02-27T08:05:22.668Z,100138.31
2023-02-27T08:06:25.938Z,100130.53
2023-02-27T08:07:28.125Z,100136.81
2023-02-27T08:08:29.992Z,100138.72
2023-02-27T08:09:31.885Z,100135.47
2023-02-27T08:10:33.841Z,100133.88
2023-02-27T08:11:35.990Z,100143.91
2023-02-27T08:12:37.955Z,100137.56
2023-02-27T08:13:59.656Z,100140.00
2023-02-27T08:15:01.732Z,100136.59
2023-02-27T08:16:03.737Z,100139.28
2023-02-27T08:17:06.001Z,100144.00
2023-02-27T08:18:07.937Z,100138.47
2023-02-27T08:19:09.859Z,100140.34
2023-02-27T08:20:13.950Z,100146.16
2023-02-27T08:21:16.145Z,100140.62
2023-02-27T08:22:18.331Z,100139.69
2023-02-27T08:23:20.170Z,100142.47
2023-02-27T08:24:22.055Z,100141.59
2023-02-27T08:25:24.297Z,100143.53
2023-02-27T08:26:26.701Z,100151.84
2023-02-27T08:27:29.023Z,100155.72
2023-02-27T08:28:30.960Z,100156.19
2023-02-27T08:29:33.104Z,100153.59
2023-02-27T08:30:34.977Z,100159.31
2023-02-27T08:31:37.219Z,100160.28
2023-02-27T08:32:39.923Z,100159.78
2023-02-27T08:33:41.787Z,100152.97
2023-02-27T08:34:43.689Z,100162.28
2023-02-27T08:35:45.751Z,100159.44
2023-02-27T08:36:47.656Z,100164.31
2023-02-27T08:37:49.847Z,100171.44
2023-02-27T08:38:51.771Z,100169.78
2023-02-27T08:39:53.638Z,100174.03
2023-02-27T08:40:55.567Z,100174.62
2023-02-27T08:41:57.550Z,100177.88
2023-02-27T08:42:59.677Z,100180.44
2023-02-27T08:44:01.560Z,100176.59
2023-02-27T08:45:04.168Z,100176.72
2023-02-27T08:46:06.221Z,100186.97
2023-02-27T08:47:08.280Z,100186.88
2023-02-27T08:48:14.079Z,100186.37
2023-02-27T08:49:16.373Z,100186.69
2023-02-27T08:50:18.448Z,100194.16
2023-02-27T08:51:20.399Z,100199.53
2023-02-27T08:52:24.947Z,100198.69
2023-02-27T08:53:28.256Z,100203.88
2023-02-27T08:54:30.339Z,100196.87
2023-02-27T08:55:32.185Z,100201.16
2023-02-27T08:56:34.864Z,100201.97
2023-02-27T08:57:36.798Z,100207.13
2023-02-27T08:58:39.445Z,100207.66
2023-02-27T08:59:41.355Z,100211.69
2023-02-27T09:00:43.845Z,100207.31
2023-02-27T09:01:45.954Z,100212.19
2023-02-27T09:02:47.862Z,100217.03
2023-02-27T09:03:50.136Z,100216.84
2023-02-27T09:04:53.025Z,100215.84
2023-02-27T09:05:56.433Z,100216.84
2023-02-27T09:06:58.295Z,100219.75
2023-02-27T09:08:00.153Z,100221.72
2023-02-27T09:09:03.718Z,100218.66
2023-02-27T09:10:07.257Z,100222.50
2023-02-27T09:11:09.096Z,100227.69
2023-02-27T09:12:11.580Z,100228.66
2023-02-27T09:13:14.176Z,100231.59
2023-02-27T09:14:16.390Z,100225.91
2023-02-27T09:15:18.399Z,100227.56
2023-02-27T09:16:23.720Z,100219.44
2023-02-27T09:17:25.658Z,100225.91
2023-02-27T09:18:27.521Z,100221.88
2023-02-27T09:19:29.985Z,100231.09
2023-02-27T09:20:32.417Z,100226.09
2023-02-27T09:21:34.362Z,100223.00
2023-02-27T09:22:36.286Z,100222.69
2023-02-27T09:23:38.186Z,100223.31
2023-02-27T09:24:40.441Z,100227.50
2023-02-27T09:25:42.341Z,100222.66
2023-02-27T09:26:46.492Z,100225.91
2023-02-27T09:27:48.579Z,100217.16
2023-02-27T09:28:50.503Z,100221.03
2023-02-27T09:29:55.618Z,100218.94
2023-02-27T09:31:08.301Z,100218.91
2023-02-27T09:32:10.295Z,100221.66
2023-02-27T09:33:12.324Z,100220.31
2023-02-27T09:34:14.224Z,100218.22
2023-02-27T09:35:16.752Z,100220.03
2023-02-27T09:36:18.924Z,100219.25
2023-02-27T09:37:20.855Z,100224.75
2023-02-27T09:38:22.776Z,100218.44
2023-02-27T09:39:24.619Z,100221.69
2023-02-27T09:40:29.754Z,100226.84
2023-02-27T09:41:46.508Z,100225.66
2023-02-27T09:42:49.064Z,100231.66
2023-02-27T09:43:52.025Z,100233.22
2023-02-27T09:45:05.954Z,100234.84
2023-02-27T09:46:15.367Z,100225.34
2023-02-27T09:47:31.469Z,100225.16
2023-02-27T09:48:55.982Z,100227.56
2023-02-27T09:50:04.242Z,100228.19
2023-02-27T09:51:06.411Z,100223.69
2023-02-27T09:52:14.035Z,100230.94
2023-02-27T09:53:23.917Z,100231.88
2023-02-27T09:54:32.051Z,100229.63
2023-02-27T09:55:38.709Z,100226.81
2023-02-27T09:56:54.288Z,100230.69
2023-02-27T09:58:08.064Z,100234.44
2023-02-27T09:59:34.333Z,100240.72
2023-02-27T10:00:45.432Z,100241.53
2023-02-27T10:02:08.473Z,100233.94
2023-02-27T10:03:19.432Z,100235.28
2023-02-27T10:04:30.487Z,100233.31
2023-02-27T10:05:48.438Z,100239.25
2023-02-27T10:06:53.578Z,100229.72
2023-02-27T10:08:07.664Z,100231.78
2023-02-27T10:09:27.963Z,100237.97
2023-02-27T10:10:33.715Z,100231.44
2023-02-27T10:11:41.693Z,100235.31
2023-02-27T10:13:25.253Z,100230.00
2023-02-27T10:14:39.117Z,100233.91
2023-02-27T10:15:47.275Z,100237.28
2023-02-27T10:16:52.850Z,100234.13
2023-02-27T10:18:19.859Z,100228.91
2023-02-27T10:19:32.004Z,100232.66
2023-02-27T10:20:38.560Z,100229.50
2023-02-27T10:21:44.826Z,100234.56
2023-02-27T10:22:48.750Z,100237.06
2023-02-27T10:24:02.934Z,100231.97
2023-02-27T10:25:29.909Z,100227.53
2023-02-27T10:26:38.538Z,100227.25
2023-02-27T10:27:43.612Z,100233.13
2023-02-27T10:28:45.457Z,100226.41
2023-02-27T10:29:47.790Z,100230.41
2023-02-27T10:30:56.785Z,100233.06
2023-02-27T10:32:21.158Z,100227.09
2023-02-27T10:33:42.674Z,100219.19
2023-02-27T10:34:50.893Z,100231.97
2023-02-27T10:35:53.826Z,100229.94
2023-02-27T10:36:56.588Z,100235.38
2023-02-27T10:38:02.946Z,100227.84
2023-02-27T10:39:11.111Z,100227.84
2023-02-27T10:40:15.344Z,100235.84
2023-02-27T10:41:19.772Z,100229.50
2023-02-27T10:42:24.413Z,100232.53
2023-02-27T10:43:26.297Z,100232.78
2023-02-27T10:44:28.163Z,100230.63
2023-02-27T10:45:31.092Z,100226.69
2023-02-27T10:46:38.085Z,100233.16
2023-02-27T10:47:40.393Z,100229.78
2023-02-27T10:48:42.398Z,100226.47
2023-02-27T10:49:44.275Z,100234.09
2023-02-27T10:50:52.084Z,100224.41
2023-02-27T10:52:14.238Z,100233.44
2023-02-27T10:53:27.059Z,100232.53
2023-02-27T10:54:28.906Z,100229.78
2023-02-27T10:55:34.002Z,100235.78
2023-02-27T10:56:35.897Z,100233.13
2023-02-27T10:57:42.958Z,100233.37
2023-02-27T10:58:45.702Z,100239.75
2023-02-27T10:59:57.898Z,100227.41
2023-02-27T11:01:02.497Z,100226.97
2023-02-27T11:02:20.969Z,100224.50
2023-02-27T11:03:29.593Z,100229.78
2023-02-27T11:04:39.860Z,100226.81
2023-02-27T11:05:41.780Z,100228.09
2023-02-27T11:06:43.772Z,100225.31
2023-02-27T11:07:45.670Z,100225.88
2023-02-27T11:09:13.395Z,100225.16
2023-02-27T11:10:24.317Z,100226.69
2023-02-27T11:11:28.621Z,100218.66
2023-02-27T11:12:33.391Z,100219.94
2023-02-27T11:13:38.174Z,100224.72
2023-02-27T11:14:55.063Z,100226.66
2023-02-27T11:16:06.306Z,100233.47
2023-02-27T11:17:30.503Z,100230.06
2023-02-27T11:18:34.195Z,100235.91
2023-02-27T11:19:38.455Z,100233.87
2023-02-27T11:20:43.471Z,100239.41
2023-02-27T11:22:00.679Z,100235.03
2023-02-27T11:23:25.789Z,100234.81
2023-02-27T11:24:29.131Z,100240.31
2023-02-27T11:25:32.032Z,100236.22
2023-02-27T11:26:37.365Z,100241.31
2023-02-27T11:27:39.225Z,100242.03
2023-02-27T11:28:42.316Z,100251.25
2023-02-27T11:29:58.607Z,100243.97
2023-02-27T11:31:23.926Z,100246.87
2023-02-27T11:32:48.879Z,100237.84
2023-02-27T11:33:57.141Z,100241.66
2023-02-27T11:34:59.179Z,100242.03
2023-02-27T11:36:02.309Z,100241.44
2023-02-27T11:37:30.589Z,100245.66
2023-02-27T11:38:34.821Z,100237.81
2023-02-27T11:39:40.535Z,100245.94
2023-02-27T11:40:51.468Z,100239.69
2023-02-27T11:41:56.358Z,100235.56
2023-02-27T11:43:24.173Z,100240.31
2023-02-27T11:44:49.681Z,100232.69
2023-02-27T11:46:13.990Z,100247.22
2023-02-27T11:47:27.035Z,100238.97
2023-02-27T11:48:47.862Z,100237.44
2023-02-27T11:49:59.697Z,100237.91
2023-02-27T11:51:24.252Z,100245.06
2023-02-27T11:53:04.406Z,100239.50
2023-02-27T11:54:35.705Z,100239.22
2023-02-27T11:55:38.016Z,100237.81
2023-02-27T11:57:00.987Z,100234.97
2023-02-27T11:58:23.394Z,100235.22
2023-02-27T11:59:40.150Z,100238.62
2023-02-27T12:00:50.841Z,100241.06
2023-02-27T12:02:03.800Z,100236.19
2023-02-27T12:03:33.959Z,100236.19
2023-02-27T12:04:47.887Z,100238.78
2023-02-27T12:05:53.687Z,100237.56
2023-02-27T12:07:06.119Z,100234.63
2023-02-27T12:08:37.027Z,100237.56
2023-02-27T12:09:41.686Z,100235.38
2023-02-27T12:11:19.211Z,100230.41
2023-02-27T12:12:44.049Z,100240.22
2023-02-27T12:13:59.509Z,100231.06
2023-02-27T12:15:21.550Z,100232.00
2023-02-27T12:16:32.946Z,100235.31
2023-02-27T12:17:39.929Z,100239.22
2023-02-27T12:18:48.156Z,100234.50
2023-02-27T12:20:05.005Z,100240.94
2023-02-27T12:21:24.398Z,100237.37
2023-02-27T12:22:33.822Z,100240.87
2023-02-27T12:23:45.947Z,100237.66
2023-02-27T12:24:53.966Z,100238.13
2023-02-27T12:26:12.576Z,100254.16
2023-02-27T12:27:21.368Z,100248.78
2023-02-27T12:28:29.456Z,100254.16
2023-02-27T12:30:08.327Z,100250.06
2023-02-27T12:31:25.640Z,100250.78
2023-02-27T12:32:43.720Z,100250.50
2023-02-27T12:33:55.173Z,100257.03
2023-02-27T12:35:18.752Z,100258.22
2023-02-27T12:36:20.755Z,100250.47
2023-02-27T12:37:28.526Z,100258.38
2023-02-27T12:38:30.540Z,100252.62
2023-02-27T12:39:34.886Z,100254.50
2023-02-27T12:40:43.653Z,100259.16
2023-02-27T12:41:58.553Z,100260.25
2023-02-27T12:43:37.967Z,100257.25
2023-02-27T12:45:13.596Z,100259.56
2023-02-27T12:46:39.620Z,100252.66
2023-02-27T12:48:18.793Z,100257.03
2023-02-27T12:49:32.537Z,100260.59
2023-02-27T12:51:01.720Z,100264.56
2023-02-27T12:52:09.944Z,100267.28
2023-02-27T12:53:30.128Z,100263.53
2023-02-27T12:54:51.610Z,100259.59
2023-02-27T12:56:06.169Z,100254.41
2023-02-27T12:57:10.852Z,100267.50
2023-02-27T12:58:31.482Z,100265.62
2023-02-27T12:59:39.379Z,100269.38
2023-02-27T13:00:50.361Z,100271.00
2023-02-27T13:02:04.687Z,100265.13
2023-02-27T13:03:34.620Z,100268.00
2023-02-27T13:04:48.819Z,100268.56
2023-02-27T13:06:17.674Z,100266.84
2023-02-27T13:08:05.976Z,100263.28
2023-02-27T13:09:30.217Z,100273.41
2023-02-27T13:10:45.510Z,100263.09
2023-02-27T13:11:59.331Z,100279.12
2023-02-27T13:13:12.729Z,100271.03
2023-02-27T13:14:24.735Z,100271.16